Flight Track Log - Related Links

Times and Time Zones

All times are in EDT time to prevent confusion due to time zone crossing. See the ASQ4633 flight status page for this flight to view local times or setup timezone preferences in your user account.

Time Position Orientation Groundspeed Altitude Reporting Facility
EDT Latitude Longitude Course Direction KTS MPH feet Rate Location/Type
Tue 12:07:29 PM 29.9617 -95.3436 240° Southwest 155 178 800  Level Houston Center
Tue 12:08:12 PM 29.9475 -95.3717 240° Southwest 197 227 2,300 2,019 Climbing Houston Center
Tue 12:09:13 PM 30.0061 -95.3914 344° North 256 295 4,300 2,244 Climbing Houston Center
Tue 12:10:15 PM 30.0844 -95.4011 354° North 269 310 6,900 2,341 Climbing Houston Center
Tue 12:11:16 PM 30.1614 -95.4136 352° North 275 316 9,100 1,545 Climbing Houston Center
Tue 12:12:27 PM 30.2467 -95.4614 334° Northwest 306 352 10,300 1,343 Climbing Houston Center
Tue 12:13:30 PM 30.3289 -95.5169 330° Northwest 336 387 12,100 1,584 Climbing Houston Center
Tue 12:14:32 PM 30.4114 -95.5711 330° Northwest 341 392 13,600 1,452 Climbing Houston Center
Tue 12:15:34 PM 30.4981 -95.6278 331° Northwest 356 410 15,100 1,694 Climbing Houston Center
Tue 12:16:36 PM 30.6053 -95.6897 334° Northwest 359 413 17,100 1,694 Climbing Houston Center
Tue 12:17:38 PM 30.6897 -95.7344 336° Northwest 356 410 18,600 1,355 Climbing Houston Center
Tue 12:18:40 PM 30.7789 -95.7819 335° Northwest 351 404 19,900 1,210 Climbing Houston Center
Tue 12:19:42 PM 30.8725 -95.8331 335° Northwest 365 420 21,100 1,306 Climbing Houston Center
Tue 12:20:44 PM 30.9875 -95.8942 336° Northwest 374 430 22,600 1,306 Climbing Houston Center
Tue 12:21:46 PM 31.0847 -95.9458 336° Northwest 380 437 23,800 1,152 Climbing Houston Center
Tue 12:22:49 PM 31.1844 -95.9922 338° Northwest 381 438 25,000 1,104 Climbing Houston Center
Tue 12:23:51 PM 31.2872 -96.0300 343° North 384 442 26,100 1,016 Climbing Houston Center
Tue 12:24:53 PM 31.3911 -96.0703 342° North 388 447 27,100 968 Climbing Houston Center
Tue 12:25:55 PM 31.4964 -96.1106 342° North 394 453 28,100 1,065 Climbing Houston Center
Tue 12:26:57 PM 31.6189 -96.1586 342° North 395 455 29,300 1,171 Climbing Houston Center
Tue 12:27:17 PM 31.6539 -96.1711 343° North 390 449 29,700 1,050 Climbing Fort Worth Center
Tue 12:28:17 PM 31.7608 -96.2161 340° North 395 455 30,700 1,000 Climbing Fort Worth Center
Tue 12:29:17 PM 31.8678 -96.2564 342° North 395 455 31,700 900 Climbing Fort Worth Center
Tue 12:30:17 PM 31.9619 -96.2942 341° North 395 455 32,500 900 Climbing Fort Worth Center
Tue 12:31:17 PM 32.0711 -96.3394 341° North 405 466 33,500 750 Climbing Fort Worth Center
Tue 12:32:17 PM 32.1800 -96.3825 341° North 405 466 34,000 250 Climbing Fort Worth Center
Tue 12:33:17 PM 32.3014 -96.4278 343° North 416 479 34,000  Level Fort Worth Center
Tue 12:34:17 PM 32.4081 -96.4683 342° North 433 498 34,000  Level Fort Worth Center
Tue 12:35:17 PM 32.5422 -96.5189 342° North 449 517 34,000  Level Fort Worth Center
Tue 12:36:17 PM 32.6531 -96.5622 342° North 455 524 34,000  Level Fort Worth Center
Tue 12:37:17 PM 32.7850 -96.6153 341° North 455 524 34,000 300 Level Fort Worth Center
Tue 12:38:17 PM 32.9064 -96.6636 342° North 455 524 34,600 750 Climbing Fort Worth Center
Tue 12:39:17 PM 33.0192 -96.7072 342° North 461 531 35,500 700 Climbing Fort Worth Center
Tue 12:40:17 PM 33.1511 -96.7558 343° North 465 535 36,000 250 Climbing Fort Worth Center
Tue 12:41:17 PM 33.2597 -96.7972 342° North 453 521 36,000  Level Fort Worth Center
Tue 12:42:17 PM 33.3936 -96.8486 342° North 461 531 36,000  Level Fort Worth Center
Tue 12:43:17 PM 33.5067 -96.8928 342° North 466 536 36,000  Level Fort Worth Center
Tue 12:44:16 PM 33.6425 -96.9444 342° North 460 529 36,000  Level Fort Worth Center
Tue 12:45:17 PM 33.7531 -96.9889 342° North 465 535 36,000  Level Fort Worth Center
Tue 12:46:17 PM 33.8722 -97.0408 340° North 458 527 36,000  Level Fort Worth Center
Tue 12:47:17 PM 33.9956 -97.0878 342° North 458 527 36,000  Level Fort Worth Center
Tue 12:48:17 PM 34.1189 -97.1350 342° North 463 533 36,000  Level Fort Worth Center
Tue 12:49:16 PM 34.2358 -97.2025 334° Northwest 463 533 36,000  Level Fort Worth Center
Tue 12:50:17 PM 34.3236 -97.3078 315° West 458 527 36,000  Level Fort Worth Center
Tue 12:51:17 PM 34.4111 -97.4211 313° West 448 516 36,000  Level Fort Worth Center
Tue 12:52:17 PM 34.4989 -97.5294 315° West 448 516 36,000  Level Fort Worth Center
Tue 12:53:17 PM 34.5842 -97.6331 315° West 448 516 36,000  Level Fort Worth Center
Tue 12:54:17 PM 34.6717 -97.7392 315° West 448 516 36,000  Level Fort Worth Center
Tue 12:55:17 PM 34.7547 -97.8483 313° West 448 516 36,000  Level Fort Worth Center
Tue 12:56:16 PM 34.8439 -97.9550 316° Northwest 448 516 36,000  Level Fort Worth Center
Tue 12:57:17 PM 34.9289 -98.0619 314° West 448 516 36,000  Level Fort Worth Center
Tue 12:58:17 PM 35.0139 -98.1689 314° West 448 516 36,000  Level Fort Worth Center
Tue 12:59:16 PM 35.1008 -98.2789 314° West 448 516 36,000  Level Fort Worth Center
Tue 01:00:16 PM 35.1833 -98.3839 314° West 448 516 36,000  Level Fort Worth Center
Tue 01:01:16 PM 35.2806 -98.5019 315° West 443 510 36,000  Level Fort Worth Center
Tue 01:02:16 PM 35.3506 -98.5894 314° West 430 495 36,000  Level Fort Worth Center
Tue 01:03:17 PM 35.4331 -98.6950 314° West 424 488 36,000  Level Fort Worth Center
Tue 01:04:17 PM 35.5131 -98.7983 314° West 424 488 36,000  Level Fort Worth Center
Tue 01:06:40 PM 35.7019 -99.0403 314° West 415 478 36,000  Level Kansas City Center
Tue 01:07:42 PM 35.7828 -99.1450 314° West 412 474 36,000  Level Kansas City Center
Tue 01:08:44 PM 35.8625 -99.2494 313° West 414 476 36,000  Level Kansas City Center
Tue 01:09:46 PM 35.9578 -99.3731 314° West 415 478 36,000  Level Kansas City Center
Tue 01:10:48 PM 36.0253 -99.4611 313° West 416 479 36,000  Level Kansas City Center
Tue 01:11:50 PM 36.1217 -99.5864 314° West 415 478 36,000  Level Kansas City Center
Tue 01:12:52 PM 36.2014 -99.6908 313° West 416 479 36,000  Level Kansas City Center
Tue 01:13:54 PM 36.2819 -99.7969 313° West 418 481 36,000  Level Kansas City Center
Tue 01:14:56 PM 36.3603 -99.9050 312° West 418 481 36,000  Level Kansas City Center
Tue 01:15:58 PM 36.4342 -100.0144 310° West 414 476 36,000  Level Kansas City Center
Tue 01:17:00 PM 36.5067 -100.1267 309° West 414 476 36,000  Level Kansas City Center
Tue 01:18:02 PM 36.5781 -100.2397 308° West 414 476 36,000  Level Kansas City Center
Tue 01:19:04 PM 36.6714 -100.3711 312° West 421 484 36,000  Level Kansas City Center
Tue 01:20:06 PM 36.7389 -100.4722 310° West 416 479 36,000  Level Kansas City Center
Tue 01:21:08 PM 36.8236 -100.5961 311° West 418 481 36,000  Level Kansas City Center
Tue 01:22:10 PM 36.8953 -100.7019 310° West 417 480 36,000  Level Kansas City Center
Tue 01:23:12 PM 36.9792 -100.8269 310° West 418 481 36,000  Level Kansas City Center
Tue 01:24:14 PM 37.0497 -100.9347 309° West 418 481 36,000  Level Kansas City Center
Tue 01:25:16 PM 37.1347 -101.0600 310° West 420 483 36,000  Level Kansas City Center
Tue 01:26:18 PM 37.2072 -101.1692 310° West 423 487 36,000  Level Kansas City Center
Tue 01:27:21 PM 37.2808 -101.2792 310° West 426 490 36,000  Level Kansas City Center
Tue 01:28:23 PM 37.3656 -101.4083 310° West 426 490 36,000  Level Kansas City Center
Tue 01:29:25 PM 37.4392 -101.5181 310° West 427 491 36,000  Level Kansas City Center
Tue 01:30:27 PM 37.5231 -101.6478 309° West 426 490 36,000  Level Kansas City Center
Tue 01:31:29 PM 37.5969 -101.7583 310° West 428 493 36,000  Level Kansas City Center
Tue 01:32:31 PM 37.6811 -101.8878 309° West 427 491 36,000  Level Kansas City Center
Tue 01:33:33 PM 37.7536 -101.9994 309° West 428 493 36,000 -194 Level Kansas City Center
Tue 01:34:35 PM 37.8381 -102.1286 310° West 426 490 35,600 -516 Descending Kansas City Center
Tue 01:35:06 PM 37.8731 -102.1828 309° West 422 486 35,200 -871 Descending Denver Center
Tue 01:35:37 PM 37.9081 -102.2383 309° West 421 484 34,700 -871 Descending Kansas City Center
Tue 01:36:08 PM 37.9431 -102.2931 309° West 421 484 34,300 -452 Descending Denver Center
Tue 01:37:10 PM 38.0278 -102.4228 310° West 426 490 34,000 -390 Descending Denver Center
Tue 01:38:11 PM 38.0867 -102.5150 309° West 423 487 33,500 -871 Descending Denver Center
Tue 01:39:14 PM 38.1822 -102.6631 309° West 424 488 32,200 -726 Descending Denver Center
Tue 01:40:15 PM 38.2553 -102.7742 310° West 428 493 32,000 -98 Descending Denver Center
Tue 01:41:17 PM 38.3331 -102.9100 306° West 425 489 32,000  Level Denver Center
Tue 01:42:19 PM 38.3928 -103.0308 302° West 422 486 32,000  Level Denver Center
Tue 01:43:21 PM 38.4419 -103.1336 301° West 426 490 32,000 -823 Level Denver Center
Tue 01:44:23 PM 38.5194 -103.2975 301° West 424 488 30,300 -2,129 Descending Denver Center
Tue 01:45:25 PM 38.5786 -103.4192 302° West 416 479 27,600 -2,855 Descending Denver Center
Tue 01:46:27 PM 38.6483 -103.5592 303° West 421 484 24,400 -3,048 Descending Denver Center
Tue 01:47:29 PM 38.7067 -103.6831 301° West 425 489 21,300 -3,194 Descending Denver Center
Tue 01:48:31 PM 38.7711 -103.8178 302° West 405 466 17,800 -3,000 Descending Denver Center
Tue 01:49:33 PM 38.8225 -103.9286 301° West 387 445 15,100 -1,854 Descending Denver Center
Tue 01:50:34 PM 38.8714 -104.0464 298° West 360 414 14,000 -488 Descending Denver Center
Tue 01:51:36 PM 38.8867 -104.1722 279° West 356 410 14,100 -532 Climbing Denver Center
Tue 01:52:38 PM 38.9072 -104.3139 281° West 360 414 12,900 -1,113 Descending Denver Center
Tue 01:53:40 PM 38.9244 -104.4381 280° West 365 420 11,800 -823 Descending Denver Center
Tue 01:54:42 PM 38.9383 -104.5567 279° West 363 418 11,200 -726 Descending Denver Center
Tue 01:55:44 PM 38.9439 -104.6708 274° West 267 307 10,300 -971 Descending Denver Center
Tue 01:56:58 PM 38.9031 -104.6856 196° South 169 194 9,000 -926 Descending Denver Center
Tue 01:58:00 PM 38.8556 -104.6806 175° South 156 180 8,200 -774 Descending Denver Center
Tue 01:59:00 PM 38.8000 -104.7000 244° Southwest  Level FlightAware Approximate
Tue 02:06:00 PM 38.8058 -104.7008 244° Southwest  Level Estimated
Tue 02:07:00 PM 38.8000 -104.7000 244° Southwest  Level FlightAware Approximate

Login

Don't have an account? Register now (free) for customized features, flight alerts, and more!